Time;durP1;ratioP1;P1;durP2;ratioP2;P2;SDS_P1;SDS_P2;PMS_P1;PMS_P2;Temp;Humidity;BMP_temperature;BMP_pressure;BME280_temperature;BME280_humidity;BME280_pressure;Samples;Min_cycle;Max_cycle;Signal;HPM_P1;HPM_P2
2023/12/25 00:01:39;;;;;;;;;;;;;;;16.04;43.33;100341.97;5062994;28;1020;-41
2023/12/25 00:04:05;;;;;;;;;;;;;;;17.52;41.58;100344.53;5061643;28;1122;-40
2023/12/25 00:06:30;;;;;;;;;;;;;;;16.39;43.22;100349.00;5068126;28;1070;-39
2023/12/25 00:08:57;;;;;;;;;;;;;;;17.53;41.39;100343.56;5055907;28;1058;-42
2023/12/25 00:11:22;;;;;;;;;;;;;;;17.67;40.74;100348.56;5074579;28;1099;-41
2023/12/25 00:13:50;;;;;;;;;;;;;;;16.56;43.04;100341.50;5061952;28;1155;-43
2023/12/25 00:16:16;;;;;;;;;;;;;;;16.82;42.95;100343.88;5067677;28;1909;-44
2023/12/25 00:18:42;;;;;;;;;;;;;;;17.11;41.89;100347.84;5072138;28;1211;-43
2023/12/25 00:21:07;;;;;;;;;;;;;;;16.21;43.53;100340.69;5076994;28;1070;-41
2023/12/25 00:23:33;;;;;;;;;;;;;;;17.14;42.25;100344.91;5072010;28;1203;-41
2023/12/25 00:25:59;;;;;;;;;;;;;;;16.62;42.70;100354.28;5058938;28;1168;-43
2023/12/25 00:28:24;;;;;;;;;;;;;;;17.73;41.07;100350.69;5059450;28;1047;-41
2023/12/25 00:30:50;;;;;;;;;;;;;;;18.34;39.09;100350.06;5060722;28;1131;-43
2023/12/25 00:33:15;;;;;;;;;;;;;;;16.77;42.69;100354.88;5057879;28;1267;-42
2023/12/25 00:35:42;;;;;;;;;;;;;;;16.35;42.88;100346.72;5058935;28;1968;-42
2023/12/25 00:38:08;;;;;;;;;;;;;;;17.58;41.46;100359.97;5072603;28;1112;-41
2023/12/25 00:40:33;;;;;;;;;;;;;;;16.94;41.94;100359.78;5071371;28;1233;-42
2023/12/25 00:42:59;;;;;;;;;;;;;;;16.31;42.91;100361.19;5072344;28;1059;-42
2023/12/25 00:45:25;;;;;;;;;;;;;;;18.07;39.89;100351.44;5047721;28;1063;-49
2023/12/25 00:47:50;;;;;;;;;;;;;;;16.61;42.80;100359.72;5046668;28;1198;-42
2023/12/25 00:50:16;;;;;;;;;;;;;;;16.70;43.21;100361.63;5071128;28;976;-42
2023/12/25 00:52:41;;;;;;;;;;;;;;;17.13;41.61;100364.50;5071725;28;1072;-45
2023/12/25 00:55:07;;;;;;;;;;;;;;;16.23;43.13;100354.66;5040457;28;1995;-42
2023/12/25 00:57:33;;;;;;;;;;;;;;;16.00;43.48;100359.94;5051742;28;1343;-42
2023/12/25 00:59:58;;;;;;;;;;;;;;;17.53;41.54;100357.72;5071404;28;1167;-44
2023/12/25 01:02:24;;;;;;;;;;;;;;;16.38;43.29;100347.28;5071774;28;1118;-45
2023/12/25 01:04:49;;;;;;;;;;;;;;;16.01;43.62;100347.53;5052535;28;1091;-42
2023/12/25 01:07:15;;;;;;;;;;;;;;;17.76;40.62;100341.63;5071890;28;989;-42
2023/12/25 01:09:41;;;;;;;;;;;;;;;16.38;43.34;100336.69;5056526;28;1063;-45
2023/12/25 01:12:06;;;;;;;;;;;;;;;15.94;43.75;100330.34;5058028;28;1059;-45
2023/12/25 01:14:32;;;;;;;;;;;;;;;17.50;40.87;100334.84;5071405;28;1202;-42
2023/12/25 01:16:58;;;;;;;;;;;;;;;16.22;43.26;100323.78;5053678;28;1975;-45
2023/12/25 01:19:23;;;;;;;;;;;;;;;18.09;40.02;100320.22;5077909;28;1075;-45
2023/12/25 01:21:50;;;;;;;;;;;;;;;17.26;41.40;100313.81;5074157;28;1035;-46
2023/12/25 01:24:16;;;;;;;;;;;;;;;16.46;42.95;100316.66;5059425;28;1332;-42
2023/12/25 01:26:42;;;;;;;;;;;;;;;16.55;43.24;100310.59;5045995;28;1161;-43
2023/12/25 01:29:07;;;;;;;;;;;;;;;17.00;42.04;100308.81;5046188;28;1565;-45
2023/12/25 01:31:35;;;;;;;;;;;;;;;16.26;42.94;100313.78;5077450;28;1216;-43
2023/12/25 01:34:01;;;;;;;;;;;;;;;17.30;41.76;100315.25;5054463;28;1213;-43
2023/12/25 01:36:27;;;;;;;;;;;;;;;16.93;42.29;100313.81;5040436;28;1969;-43
2023/12/25 01:38:52;;;;;;;;;;;;;;;16.28;43.22;100303.88;5057707;28;984;-42
2023/12/25 01:41:19;;;;;;;;;;;;;;;16.92;42.78;100306.78;5039351;28;1135;-46
2023/12/25 01:43:45;;;;;;;;;;;;;;;16.88;42.26;100300.03;5057429;28;1041;-44
2023/12/25 01:46:11;;;;;;;;;;;;;;;16.12;43.48;100299.78;5043750;28;1056;-41
2023/12/25 01:48:37;;;;;;;;;;;;;;;16.69;43.08;100298.88;5057042;28;1092;-45
2023/12/25 01:51:04;;;;;;;;;;;;;;;16.98;41.51;100290.31;5071152;28;1222;-45
2023/12/25 01:53:29;;;;;;;;;;;;;;;16.21;43.34;100289.41;5052081;28;1060;-42
2023/12/25 01:55:55;;;;;;;;;;;;;;;18.26;39.56;100289.50;5035803;28;1913;-43
2023/12/25 01:58:21;;;;;;;;;;;;;;;16.70;42.75;100281.13;5039047;28;1099;-44
2023/12/25 02:00:46;;;;;;;;;;;;;;;16.15;43.02;100280.94;5039417;28;1130;-42
2023/12/25 02:03:12;;;;;;;;;;;;;;;16.74;42.86;100282.56;5042297;28;1129;-43
2023/12/25 02:05:38;;;;;;;;;;;;;;;16.55;42.89;100281.38;5058907;28;1175;-41
2023/12/25 02:08:04;;;;;;;;;;;;;;;16.89;42.60;100280.47;5077025;28;1125;-43
2023/12/25 02:10:30;;;;;;;;;;;;;;;18.11;39.63;100270.38;5052637;28;1063;-42
2023/12/25 02:12:57;;;;;;;;;;;;;;;16.59;42.66;100280.19;5045780;28;1296;-41
2023/12/25 02:15:23;;;;;;;;;;;;;;;16.25;42.83;100282.88;5076715;28;1979;-41
2023/12/25 02:17:49;;;;;;;;;;;;;;;17.56;41.11;100290.97;5076767;28;1047;-41
2023/12/25 02:20:15;;;;;;;;;;;;;;;16.53;42.71;100281.50;5045708;28;1235;-45
2023/12/25 02:22:40;;;;;;;;;;;;;;;16.40;43.73;100284.31;5051433;28;1152;-40
2023/12/25 02:25:07;;;;;;;;;;;;;;;17.41;41.06;100276.28;5069905;28;1044;-44
2023/12/25 02:27:33;;;;;;;;;;;;;;;16.36;42.97;100285.53;5068990;28;1049;-42
2023/12/25 02:29:58;;;;;;;;;;;;;;;16.03;43.26;100285.41;5038766;28;1025;-45
2023/12/25 02:32:24;;;;;;;;;;;;;;;17.16;42.04;100291.63;5063540;28;1667;-44
2023/12/25 02:34:50;;;;;;;;;;;;;;;16.48;43.03;100288.19;5057063;28;1067;-43
2023/12/25 02:37:15;;;;;;;;;;;;;;;16.07;43.33;100290.47;5063912;28;1974;-45
2023/12/25 02:39:41;;;;;;;;;;;;;;;17.61;40.94;100298.53;5057900;28;1096;-41
2023/12/25 02:42:06;;;;;;;;;;;;;;;16.48;42.66;100302.28;5063177;28;1066;-42
2023/12/25 02:44:32;;;;;;;;;;;;;;;15.94;43.59;100299.38;5075605;28;1178;-45
2023/12/25 02:46:57;;;;;;;;;;;;;;;17.42;40.98;100297.44;5063572;28;876;-42
2023/12/25 02:49:23;;;;;;;;;;;;;;;16.23;43.46;100290.13;5076156;28;1060;-42
2023/12/25 02:51:49;;;;;;;;;;;;;;;16.77;42.87;100293.78;5063285;28;1126;-42
2023/12/25 02:54:14;;;;;;;;;;;;;;;16.85;41.81;100279.03;5062517;28;1079;-46
2023/12/25 02:56:40;;;;;;;;;;;;;;;16.33;43.80;100279.63;5063230;28;1972;-44
2023/12/25 02:59:05;;;;;;;;;;;;;;;18.40;39.15;100280.28;5070640;28;1137;-42
2023/12/25 03:01:31;;;;;;;;;;;;;;;16.77;42.16;100288.47;5075953;28;1071;-42
2023/12/25 03:03:57;;;;;;;;;;;;;;;16.22;43.07;100275.16;5075475;28;1138;-41
2023/12/25 03:06:23;;;;;;;;;;;;;;;16.98;42.59;100274.38;5062380;28;1106;-43
2023/12/25 03:08:48;;;;;;;;;;;;;;;16.71;42.18;100272.19;5075784;28;1098;-43
2023/12/25 03:11:14;;;;;;;;;;;;;;;16.23;43.42;100263.59;5074342;28;926;-41
2023/12/25 03:13:40;;;;;;;;;;;;;;;18.08;39.67;100262.66;5057501;28;1213;-43
2023/12/25 03:16:05;;;;;;;;;;;;;;;16.56;42.72;100267.16;5057639;28;1979;-41
2023/12/25 03:18:31;;;;;;;;;;;;;;;16.21;42.76;100249.59;5057593;28;1331;-43
2023/12/25 03:20:57;;;;;;;;;;;;;;;17.53;40.80;100258.44;5045541;28;1048;-41
2023/12/25 03:23:22;;;;;;;;;;;;;;;16.35;42.74;100256.47;5069946;28;1091;-41
2023/12/25 03:25:48;;;;;;;;;;;;;;;16.22;44.01;100260.09;5075681;28;1063;-43
2023/12/25 03:28:14;;;;;;;;;;;;;;;17.01;41.72;100250.25;5075718;28;1092;-41
2023/12/25 03:30:39;;;;;;;;;;;;;;;16.15;43.46;100257.06;5044738;28;1204;-42
2023/12/25 03:33:07;;;;;;;;;;;;;;;17.61;40.81;100258.66;5075528;28;1209;-43
2023/12/25 03:35:36;;;;;;;;;;;;;;;16.73;42.18;100257.81;5039576;28;1961;-42
2023/12/25 03:38:01;;;;;;;;;;;;;;;16.91;42.55;100261.75;5068546;28;1043;-42
2023/12/25 03:40:27;;;;;;;;;;;;;;;17.78;40.20;100267.00;5069043;28;1202;-44
2023/12/25 03:42:54;;;;;;;;;;;;;;;16.50;42.83;100259.66;5068833;28;1156;-42
2023/12/25 03:45:19;;;;;;;;;;;;;;;17.21;41.92;100254.88;5056663;28;1122;-42
2023/12/25 03:47:46;;;;;;;;;;;;;;;16.74;42.31;100256.00;5054613;28;2487;-40
2023/12/25 03:50:12;;;;;;;;;;;;;;;17.45;41.28;100251.97;5069228;28;1951;-41
2023/12/25 03:52:38;;;;;;;;;;;;;;;18.29;39.02;100238.66;5068751;28;2221;-37
2023/12/25 03:55:03;;;;;;;;;;;;;;;16.86;41.78;100236.41;5059287;28;1977;-40
2023/12/25 03:57:29;;;;;;;;;;;;;;;16.34;42.61;100237.03;5065734;28;2169;-39
2023/12/25 03:59:55;;;;;;;;;;;;;;;16.05;42.93;100236.72;5075398;28;2223;-37
2023/12/25 04:02:20;;;;;;;;;;;;;;;17.66;40.58;100250.25;5070817;28;1935;-38
2023/12/25 04:04:46;;;;;;;;;;;;;;;16.47;42.66;100242.19;5079089;28;1047;-38
2023/12/25 04:07:11;;;;;;;;;;;;;;;18.02;40.13;100242.72;5060954;28;1250;-38
2023/12/25 04:09:38;;;;;;;;;;;;;;;17.52;40.55;100252.28;5057685;28;1151;-38
2023/12/25 04:12:04;;;;;;;;;;;;;;;16.61;42.67;100258.81;5062122;28;1317;-39
2023/12/25 04:14:29;;;;;;;;;;;;;;;17.52;41.40;100260.25;5060699;28;1317;-38
2023/12/25 04:16:56;;;;;;;;;;;;;;;16.83;41.81;100257.88;5060816;28;1977;-38
2023/12/25 04:19:21;;;;;;;;;;;;;;;16.24;43.37;100259.97;5060803;28;1091;-37
2023/12/25 04:21:47;;;;;;;;;;;;;;;16.58;43.30;100264.38;5078729;28;1274;-37
2023/12/25 04:24:12;;;;;;;;;;;;;;;17.09;41.59;100256.75;5078061;28;1107;-38
2023/12/25 04:26:38;;;;;;;;;;;;;;;16.32;43.12;100254.03;5060235;28;1697;-39
2023/12/25 04:29:04;;;;;;;;;;;;;;;16.34;43.57;100250.31;5060535;28;1428;-39
2023/12/25 04:31:30;;;;;;;;;;;;;;;17.12;41.76;100236.06;5059478;28;1941;-39
2023/12/25 04:33:56;;;;;;;;;;;;;;;16.11;43.76;100231.75;5060463;28;1147;-38
2023/12/25 04:36:21;;;;;;;;;;;;;;;17.84;40.72;100238.03;5070640;28;1906;-40
2023/12/25 04:38:47;;;;;;;;;;;;;;;16.77;42.15;100238.00;5047189;28;1203;-39
2023/12/25 04:41:12;;;;;;;;;;;;;;;16.22;43.19;100232.69;5048096;28;1155;-39
2023/12/25 04:43:39;;;;;;;;;;;;;;;18.05;39.85;100223.81;5035918;28;1076;-38
2023/12/25 04:46:05;;;;;;;;;;;;;;;16.60;42.56;100234.06;5058319;28;1044;-38
2023/12/25 04:48:31;;;;;;;;;;;;;;;16.08;43.30;100224.00;5052859;28;1138;-39
2023/12/25 04:50:59;;;;;;;;;;;;;;;17.95;40.45;100222.97;5068057;28;1121;-43
2023/12/25 04:53:24;;;;;;;;;;;;;;;17.18;41.40;100223.25;5053587;28;1310;-49
2023/12/25 04:55:50;;;;;;;;;;;;;;;16.39;43.09;100224.22;5068790;28;1914;-47
2023/12/25 04:58:16;;;;;;;;;;;;;;;16.60;43.03;100219.97;5058220;28;2176;-46
2023/12/25 05:00:42;;;;;;;;;;;;;;;16.94;42.01;100225.13;5063880;28;876;-43
2023/12/25 05:03:07;;;;;;;;;;;;;;;16.26;43.52;100228.84;5069606;28;2566;-47
2023/12/25 05:05:33;;;;;;;;;;;;;;;17.46;41.52;100237.72;5056477;28;1019;-40
2023/12/25 05:07:58;;;;;;;;;;;;;;;16.53;43.04;100232.91;5074853;28;1027;-41
2023/12/25 05:10:24;;;;;;;;;;;;;;;17.06;41.81;100227.75;5059916;28;1331;-40
2023/12/25 05:12:49;;;;;;;;;;;;;;;17.61;40.41;100240.88;5070514;28;1157;-40
2023/12/25 05:15:15;;;;;;;;;;;;;;;17.78;40.49;100243.06;5059859;28;1901;-40
2023/12/25 05:17:41;;;;;;;;;;;;;;;18.83;37.93;100245.47;5059374;28;2093;-40
2023/12/25 05:20:06;;;;;;;;;;;;;;;15.40;45.56;100249.50;5077642;28;1063;-40
2023/12/25 05:22:33;;;;;;;;;;;;;;;18.34;39.51;100257.72;5042637;28;1280;-40
2023/12/25 05:24:59;;;;;;;;;;;;;;;17.97;39.77;100247.59;5072010;28;822;-40
2023/12/25 05:27:24;;;;;;;;;;;;;;;17.41;39.90;100244.38;5077008;28;1113;-42
2023/12/25 05:29:50;;;;;;;;;;;;;;;17.17;41.13;100246.31;5066907;28;1131;-41
2023/12/25 05:32:15;;;;;;;;;;;;;;;17.05;41.17;100242.84;5061643;28;2358;-41
2023/12/25 05:34:41;;;;;;;;;;;;;;;16.88;41.49;100244.25;5068108;28;1032;-42
2023/12/25 05:37:06;;;;;;;;;;;;;;;16.61;41.55;100238.44;5069028;28;1913;-41
2023/12/25 05:39:32;;;;;;;;;;;;;;;16.45;42.03;100236.16;5069445;28;1039;-42
2023/12/25 05:41:58;;;;;;;;;;;;;;;16.50;41.86;100238.44;5071390;28;1047;-42
2023/12/25 05:44:23;;;;;;;;;;;;;;;16.97;40.04;100232.00;5057271;28;1052;-41
2023/12/25 05:46:49;;;;;;;;;;;;;;;16.68;40.90;100221.97;5076147;28;1076;-41
2023/12/25 05:49:14;;;;;;;;;;;;;;;16.57;41.03;100225.50;5076854;28;860;-42
2023/12/25 05:51:40;;;;;;;;;;;;;;;16.06;42.03;100225.13;5063568;28;1133;-41
2023/12/25 05:54:06;;;;;;;;;;;;;;;15.67;43.19;100224.47;5076939;28;1035;-41
2023/12/25 05:56:31;;;;;;;;;;;;;;;15.48;43.61;100230.34;5071098;28;1974;-40
2023/12/25 05:58:57;;;;;;;;;;;;;;;16.76;41.34;100235.47;5056340;28;1364;-41
2023/12/25 06:01:22;;;;;;;;;;;;;;;16.56;41.15;100229.13;5064878;28;1917;-40
2023/12/25 06:03:49;;;;;;;;;;;;;;;16.01;42.57;100236.09;5069155;28;1225;-41
2023/12/25 06:06:14;;;;;;;;;;;;;;;15.68;43.21;100235.94;5076271;28;1083;-39
2023/12/25 06:08:40;;;;;;;;;;;;;;;15.51;43.66;100239.88;5070040;28;1452;-41
2023/12/25 06:11:05;;;;;;;;;;;;;;;16.20;42.16;100232.81;5057282;28;920;-39
2023/12/25 06:13:31;;;;;;;;;;;;;;;17.19;39.96;100233.75;5057052;28;904;-39
2023/12/25 06:15:57;;;;;;;;;;;;;;;16.30;41.99;100232.91;5064367;28;1979;-40
2023/12/25 06:18:22;;;;;;;;;;;;;;;15.94;43.00;100222.44;5075176;28;987;-39
2023/12/25 06:20:48;;;;;;;;;;;;;;;15.65;43.20;100234.34;5064621;28;1020;-41
2023/12/25 06:23:13;;;;;;;;;;;;;;;16.46;41.84;100244.97;5074668;28;999;-39
2023/12/25 06:25:39;;;;;;;;;;;;;;;17.23;40.04;100237.00;5072119;28;981;-40
2023/12/25 06:28:05;;;;;;;;;;;;;;;16.33;42.13;100239.81;5062794;28;981;-39
2023/12/25 06:30:30;;;;;;;;;;;;;;;15.95;43.00;100237.38;5075846;28;1102;-39
2023/12/25 06:32:56;;;;;;;;;;;;;;;15.73;43.38;100244.34;5059641;28;2525;-40
2023/12/25 06:35:22;;;;;;;;;;;;;;;16.80;41.49;100236.91;5075705;28;1910;-41
2023/12/25 06:37:47;;;;;;;;;;;;;;;17.07;40.73;100235.59;5070669;28;922;-40
2023/12/25 06:40:13;;;;;;;;;;;;;;;16.18;42.24;100236.56;5071471;28;1103;-40
2023/12/25 06:42:38;;;;;;;;;;;;;;;15.86;43.21;100232.81;5056070;28;1086;-40
2023/12/25 06:45:07;;;;;;;;;;;;;;;15.83;42.55;100222.44;5073210;28;1008;-38
2023/12/25 06:47:34;;;;;;;;;;;;;;;16.27;42.44;100236.69;5057966;28;1024;-39
2023/12/25 06:49:59;;;;;;;;;;;;;;;17.31;40.04;100247.81;5062599;28;1146;-40
2023/12/25 06:52:25;;;;;;;;;;;;;;;16.85;39.94;100247.16;5075776;28;1051;-39
2023/12/25 06:54:50;;;;;;;;;;;;;;;15.99;42.42;100248.63;5058206;28;1090;-41
2023/12/25 06:57:16;;;;;;;;;;;;;;;15.75;43.07;100239.78;5066487;28;1976;-40
2023/12/25 06:59:42;;;;;;;;;;;;;;;16.04;41.78;100241.16;5075565;28;1055;-41
2023/12/25 07:02:08;;;;;;;;;;;;;;;17.08;40.16;100253.19;5062664;28;1781;-40
2023/12/25 07:04:34;;;;;;;;;;;;;;;16.56;41.12;100258.34;5055863;28;992;-40
2023/12/25 07:06:59;;;;;;;;;;;;;;;16.00;42.66;100263.56;5059398;28;1012;-39
2023/12/25 07:09:25;;;;;;;;;;;;;;;15.64;43.25;100263.66;5075939;28;1082;-39
2023/12/25 07:11:51;;;;;;;;;;;;;;;17.10;39.47;100263.78;5062421;28;1127;-38
2023/12/25 07:14:17;;;;;;;;;;;;;;;17.47;38.52;100265.97;5065578;28;906;-38
2023/12/25 07:16:42;;;;;;;;;;;;;;;16.89;39.17;100281.31;5072179;28;1910;-41
2023/12/25 07:19:08;;;;;;;;;;;;;;;16.58;39.47;100273.16;5075356;28;1066;-38
2023/12/25 07:21:33;;;;;;;;;;;;;;;16.47;39.96;100282.00;5062710;28;1107;-39
2023/12/25 07:23:59;;;;;;;;;;;;;;;16.71;39.27;100296.94;5075306;28;1119;-40
2023/12/25 07:26:25;;;;;;;;;;;;;;;17.86;37.12;100297.28;5069824;28;953;-39
2023/12/25 07:28:50;;;;;;;;;;;;;;;17.07;38.29;100299.38;5068965;28;1126;-41
2023/12/25 07:31:16;;;;;;;;;;;;;;;16.46;39.69;100293.63;5074825;28;2605;-38
2023/12/25 07:33:42;;;;;;;;;;;;;;;16.34;39.66;100284.81;5059446;28;1202;-39
2023/12/25 07:36:07;;;;;;;;;;;;;;;15.74;41.38;100287.63;5069886;28;1979;-39
2023/12/25 07:38:33;;;;;;;;;;;;;;;17.12;39.21;100293.69;5077940;28;846;-39
2023/12/25 07:40:59;;;;;;;;;;;;;;;16.87;39.40;100291.22;5078921;28;1059;-41
2023/12/25 07:43:26;;;;;;;;;;;;;;;16.20;41.17;100301.00;5078788;28;1101;-42
2023/12/25 07:45:52;;;;;;;;;;;;;;;15.85;41.60;100292.13;5068281;28;1193;-39
2023/12/25 07:48:17;;;;;;;;;;;;;;;15.82;42.34;100292.34;5041388;28;1184;-41
2023/12/25 07:50:43;;;;;;;;;;;;;;;17.29;39.42;100288.78;5078419;28;921;-39
2023/12/25 07:53:08;;;;;;;;;;;;;;;16.58;40.24;100288.28;5079317;28;1079;-39
2023/12/25 07:55:36;;;;;;;;;;;;;;;16.03;41.80;100288.06;5078658;28;1981;-39
2023/12/25 07:58:02;;;;;;;;;;;;;;;15.71;42.41;100290.53;5078972;28;1157;-39
2023/12/25 08:00:27;;;;;;;;;;;;;;;16.70;40.32;100295.25;5078215;28;1376;-37
2023/12/25 08:02:53;;;;;;;;;;;;;;;16.97;39.90;100293.13;5059001;28;2261;-40
2023/12/25 08:05:18;;;;;;;;;;;;;;;16.23;41.26;100285.66;5071691;28;1119;-40
2023/12/25 08:07:44;;;;;;;;;;;;;;;15.90;42.13;100284.63;5072882;28;1020;-43
2023/12/25 08:10:11;;;;;;;;;;;;;;;15.66;42.91;100293.53;5058931;28;1063;-42
2023/12/25 08:12:37;;;;;;;;;;;;;;;17.09;39.89;100293.94;5064322;28;1050;-41
2023/12/25 08:15:03;;;;;;;;;;;;;;;16.70;40.54;100294.41;5060879;28;1040;-40
2023/12/25 08:17:28;;;;;;;;;;;;;;;16.07;41.88;100295.78;5059643;28;1934;-42
2023/12/25 08:19:54;;;;;;;;;;;;;;;15.83;42.77;100288.75;5075998;28;961;-41
2023/12/25 08:22:20;;;;;;;;;;;;;;;15.63;43.26;100296.44;5078735;28;1008;-40
2023/12/25 08:24:45;;;;;;;;;;;;;;;17.51;38.92;100295.81;5077368;28;1059;-40
2023/12/25 08:27:11;;;;;;;;;;;;;;;16.82;40.23;100297.88;5067643;28;1352;-41
2023/12/25 08:29:36;;;;;;;;;;;;;;;16.12;42.07;100304.22;5071791;28;897;-41
2023/12/25 08:32:02;;;;;;;;;;;;;;;16.23;41.52;100295.44;5067092;28;2257;-44
2023/12/25 08:34:28;;;;;;;;;;;;;;;15.56;42.90;100282.81;5068159;28;1171;-45
2023/12/25 08:36:53;;;;;;;;;;;;;;;16.90;40.68;100274.16;5078201;28;1910;-52
2023/12/25 08:39:19;;;;;;;;;;;;;;;16.82;40.32;100276.63;5067696;28;1123;-50
2023/12/25 08:41:45;;;;;;;;;;;;;;;16.07;42.12;100264.78;5062155;28;1123;-51
2023/12/25 08:44:10;;;;;;;;;;;;;;;15.76;43.15;100273.31;5078309;28;1090;-51
2023/12/25 08:46:36;;;;;;;;;;;;;;;15.59;43.11;100282.56;5060804;28;1233;-51
2023/12/25 08:49:02;;;;;;;;;;;;;;;16.97;40.62;100270.06;5059626;28;1079;-51
2023/12/25 08:51:29;;;;;;;;;;;;;;;16.61;40.87;100270.28;5061147;28;1092;-49
2023/12/25 08:53:54;;;;;;;;;;;;;;;15.99;42.46;100249.50;5071454;28;1626;-49
2023/12/25 08:56:26;;;;;;;;;;;;;;;15.68;43.32;100249.19;5077918;28;1906;-48
2023/12/25 08:58:52;;;;;;;;;;;;;;;15.81;43.39;100233.19;5067090;28;992;-49
2023/12/25 09:01:18;;;;;;;;;;;;;;;17.30;40.14;100232.81;5075294;28;2401;-48
2023/12/25 09:03:43;;;;;;;;;;;;;;;16.62;41.07;100234.78;5078011;28;1075;-46
2023/12/25 09:06:09;;;;;;;;;;;;;;;16.05;42.71;100226.91;5077714;28;1131;-51
2023/12/25 09:08:34;;;;;;;;;;;;;;;15.70;43.19;100226.03;5066634;28;1099;-46
2023/12/25 09:11:00;;;;;;;;;;;;;;;15.60;43.52;100228.56;5062848;28;1166;-46
2023/12/25 09:13:25;;;;;;;;;;;;;;;17.05;40.54;100223.41;5069706;28;1110;-46
2023/12/25 09:15:51;;;;;;;;;;;;;;;16.69;41.27;100221.84;5077702;28;1918;-48
2023/12/25 09:18:17;;;;;;;;;;;;;;;16.01;42.39;100220.19;5077808;28;1000;-49
2023/12/25 09:20:42;;;;;;;;;;;;;;;15.74;43.32;100224.84;5059693;28;1319;-47
2023/12/25 09:23:08;;;;;;;;;;;;;;;16.43;42.02;100218.69;5068959;28;1012;-48
2023/12/25 09:25:33;;;;;;;;;;;;;;;17.11;40.48;100209.63;5063707;28;1114;-47
2023/12/25 09:27:59;;;;;;;;;;;;;;;16.25;42.21;100212.06;5066299;28;1119;-49
2023/12/25 09:30:25;;;;;;;;;;;;;;;15.86;42.98;100214.25;5075142;28;1031;-49
2023/12/25 09:32:50;;;;;;;;;;;;;;;15.82;43.45;100210.97;5071320;28;2565;-44
2023/12/25 09:35:18;;;;;;;;;;;;;;;17.28;40.34;100215.34;5072686;28;1107;-49
2023/12/25 09:37:43;;;;;;;;;;;;;;;16.57;41.64;100209.56;5068824;28;1906;-48
2023/12/25 09:40:09;;;;;;;;;;;;;;;15.99;42.68;100193.78;5063135;28;1047;-48
2023/12/25 09:42:35;;;;;;;;;;;;;;;15.70;43.47;100191.56;5066469;28;1218;-48
2023/12/25 09:45:01;;;;;;;;;;;;;;;15.58;43.61;100195.19;5074376;28;1514;-49
2023/12/25 09:47:26;;;;;;;;;;;;;;;16.30;42.30;100186.97;5065962;28;1003;-48
2023/12/25 09:49:52;;;;;;;;;;;;;;;17.47;39.88;100196.84;5054274;28;1204;-50
2023/12/25 09:52:17;;;;;;;;;;;;;;;16.54;41.53;100189.44;5059302;28;1068;-48
2023/12/25 09:54:44;;;;;;;;;;;;;;;16.02;42.92;100187.38;5063136;28;1039;-48
2023/12/25 09:57:10;;;;;;;;;;;;;;;15.74;43.56;100174.47;5076712;28;1898;-49
2023/12/25 09:59:35;;;;;;;;;;;;;;;15.57;43.75;100186.38;5063460;28;1187;-47
2023/12/25 10:02:02;;;;;;;;;;;;;;;16.56;41.93;100187.50;5052742;28;1831;-46
2023/12/25 10:04:29;;;;;;;;;;;;;;;17.02;40.73;100188.16;5058608;28;1084;-49
2023/12/25 10:06:54;;;;;;;;;;;;;;;16.15;42.42;100182.75;5076612;28;1020;-49
2023/12/25 10:09:20;;;;;;;;;;;;;;;15.90;43.48;100191.81;5074442;28;1263;-45
2023/12/25 10:11:46;;;;;;;;;;;;;;;15.79;43.69;100177.59;5069055;28;1353;-49
2023/12/25 10:14:11;;;;;;;;;;;;;;;17.28;40.48;100176.31;5075945;28;1379;-47
2023/12/25 10:16:38;;;;;;;;;;;;;;;16.73;41.45;100183.44;5073406;28;1878;-46
2023/12/25 10:19:03;;;;;;;;;;;;;;;16.16;42.53;100170.34;5076355;28;1118;-50
2023/12/25 10:21:40;;;;;;;;;;;;;;;15.83;43.47;100153.47;5076146;28;968;-51
2023/12/25 10:24:14;;;;;;;;;;;;;;;15.66;44.05;100145.06;5064090;28;1103;-53
2023/12/25 10:26:40;;;;;;;;;;;;;;;16.23;43.01;100157.44;5075319;28;1134;-50
2023/12/25 10:29:09;;;;;;;;;;;;;;;17.34;40.29;100159.84;5076004;28;1050;-51
2023/12/25 10:31:36;;;;;;;;;;;;;;;16.40;41.95;100161.34;5062563;28;2338;-52
2023/12/25 10:34:01;;;;;;;;;;;;;;;15.94;42.92;100126.94;5068813;28;1012;-51
2023/12/25 10:36:28;;;;;;;;;;;;;;;15.67;43.85;100147.59;5063136;28;1910;-47
2023/12/25 10:38:54;;;;;;;;;;;;;;;15.58;43.53;100134.22;5075980;28;850;-50
2023/12/25 10:41:27;;;;;;;;;;;;;;;16.63;41.77;100137.38;5075564;28;1411;-51
2023/12/25 10:43:53;;;;;;;;;;;;;;;16.90;41.05;100136.03;5064896;28;1066;-48
2023/12/25 10:46:23;;;;;;;;;;;;;;;16.21;42.64;100130.16;5073387;28;1071;-51
2023/12/25 10:48:49;;;;;;;;;;;;;;;15.85;43.30;100133.00;5075462;28;1047;-47
2023/12/25 10:51:35;;;;;;;;;;;;;;;15.62;43.66;100128.53;5069533;28;1067;-51
2023/12/25 10:54:02;;;;;;;;;;;;;;;15.67;43.99;100129.03;5070517;28;1366;-49
2023/12/25 10:56:27;;;;;;;;;;;;;;;17.18;40.53;100139.03;5075716;28;1978;-51
2023/12/25 10:58:53;;;;;;;;;;;;;;;16.57;41.45;100138.72;5069806;28;1595;-48
2023/12/25 11:01:22;;;;;;;;;;;;;;;16.03;42.96;100130.72;5061541;28;2486;-49
2023/12/25 11:03:48;;;;;;;;;;;;;;;15.75;43.64;100123.09;5072835;28;1083;-51
2023/12/25 11:06:13;;;;;;;;;;;;;;;16.36;42.53;100130.72;5043663;28;1275;-56
2023/12/25 11:08:40;;;;;;;;;;;;;;;17.08;40.56;100135.44;5074557;28;1056;-51
2023/12/25 11:11:05;;;;;;;;;;;;;;;16.27;42.37;100127.84;5063129;28;1154;-52
2023/12/25 11:13:31;;;;;;;;;;;;;;;15.86;43.13;100132.03;5061417;28;1064;-49
2023/12/25 11:15:57;;;;;;;;;;;;;;;15.62;43.70;100130.34;5053192;28;1914;-49
2023/12/25 11:18:22;;;;;;;;;;;;;;;15.89;43.34;100127.31;5074970;28;1099;-54
2023/12/25 11:21:07;;;;;;;;;;;;;;;17.29;40.54;100124.81;5075614;28;1054;-50
2023/12/25 11:23:36;;;;;;;;;;;;;;;16.47;41.90;100112.09;5067228;28;1116;-52
2023/12/25 11:26:03;;;;;;;;;;;;;;;15.91;43.27;100120.06;5057395;28;1032;-53
2023/12/25 11:28:31;;;;;;;;;;;;;;;15.73;43.95;100126.84;5075535;28;1019;-52
2023/12/25 11:30:56;;;;;;;;;;;;;;;15.73;43.72;100130.34;5061984;28;1611;-50
2023/12/25 11:33:22;;;;;;;;;;;;;;;17.12;40.69;100115.63;5074290;28;1123;-51
2023/12/25 11:35:47;;;;;;;;;;;;;;;16.66;41.39;100121.19;5066404;28;1918;-52
2023/12/25 11:38:19;;;;;;;;;;;;;;;16.09;42.65;100124.91;5043642;28;1108;-52
2023/12/25 11:40:45;;;;;;;;;;;;;;;15.82;43.19;100119.94;5066391;28;1082;-47
2023/12/25 11:43:10;;;;;;;;;;;;;;;15.63;44.11;100118.78;5070902;28;1131;-51
2023/12/25 11:45:43;;;;;;;;;;;;;;;15.77;43.56;100123.84;5075293;28;1103;-48
2023/12/25 11:48:11;;;;;;;;;;;;;;;17.07;40.73;100123.13;5074137;28;1063;-54
2023/12/25 11:50:36;;;;;;;;;;;;;;;16.19;42.51;100127.63;5069402;28;1338;-53
2023/12/25 11:53:02;;;;;;;;;;;;;;;15.84;43.53;100123.34;5075126;28;1060;-51
2023/12/25 11:55:27;;;;;;;;;;;;;;;15.60;44.22;100121.69;5075405;28;1186;-50
2023/12/25 11:57:53;;;;;;;;;;;;;;;15.90;43.30;100123.69;5075645;28;1971;-49
2023/12/25 12:00:22;;;;;;;;;;;;;;;17.30;40.40;100123.00;5071848;28;1096;-47
2023/12/25 12:02:48;;;;;;;;;;;;;;;16.51;41.76;100128.63;5058958;28;2607;-47
2023/12/25 12:05:14;;;;;;;;;;;;;;;16.03;42.84;100120.09;5075204;28;1000;-50
2023/12/25 12:07:39;;;;;;;;;;;;;;;15.70;43.94;100125.28;5075285;28;1398;-51
2023/12/25 12:10:05;;;;;;;;;;;;;;;16.21;42.96;100125.72;5061674;28;1131;-49
2023/12/25 12:12:31;;;;;;;;;;;;;;;17.13;40.43;100123.47;5057452;28;1174;-50
2023/12/25 12:14:57;;;;;;;;;;;;;;;16.32;42.36;100131.94;5074388;28;1118;-50
2023/12/25 12:17:22;;;;;;;;;;;;;;;15.96;43.03;100106.44;5059391;28;1902;-49
2023/12/25 12:19:48;;;;;;;;;;;;;;;15.73;43.88;100117.06;5044134;28;1087;-51
2023/12/25 12:22:16;;;;;;;;;;;;;;;15.51;44.29;100129.41;5050913;28;1202;-53
2023/12/25 12:24:42;;;;;;;;;;;;;;;16.12;42.93;100132.59;5057371;28;1157;-53
2023/12/25 12:27:08;;;;;;;;;;;;;;;17.36;39.99;100135.78;5060495;28;1179;-52
2023/12/25 12:29:34;;;;;;;;;;;;;;;16.55;41.72;100153.94;5064949;28;1094;-52
2023/12/25 12:31:59;;;;;;;;;;;;;;;16.01;42.85;100143.25;5068387;28;2504;-50
2023/12/25 12:34:25;;;;;;;;;;;;;;;15.93;43.28;100150.94;5071936;28;1130;-54
2023/12/25 12:37:00;;;;;;;;;;;;;;;15.62;44.15;100144.44;5065569;28;1976;-53
2023/12/25 12:39:26;;;;;;;;;;;;;;;16.88;41.45;100148.63;5069497;28;1111;-56
2023/12/25 12:41:55;;;;;;;;;;;;;;;16.92;40.97;100138.53;5078155;28;1056;-54